Bulnes — CQWC — position and weather

sailwx.info

Track history (hours):
 
Tides and Currents Weather Stations Pressure Air Temp Water Temp Dewpoint Dewpoint Depression Visibility Wind Speed Wind Dir Waves Ship Positions

Bulnes

Last reported at 2017-Oct-17 14:06 UTC. Time now 2017-Oct-20 19:45 UTC.
Position N 36°00' W 005°13'.

Length 86 m; draft 5 m.

Type: Cargo ship. MMSI: 255925000.

Date/timePositionNaut miles runAvg speedWind from/ knotsBaromVisibWave heightAir tempDewpointWater temp
2017-Oct-17 14:06N 36°00' W 005°13'1 8.8
2017-Oct-17 13:59N 36°00' W 005°14'4 9.0
2017-Oct-17 13:31N 35°59' W 005°19'5 9.4
2017-Oct-17 13:01N 35°59' W 005°25'5 9.2
2017-Oct-17 12:27N 35°57' W 005°31'163 7.6
2017-Oct-16 14:55N 36°29' W 008°50'7 8.2
2017-Oct-16 14:01N 36°31' W 008°59'83 7.5
2017-Oct-16 02:55N 37°44' W 009°48'4 8.4
2017-Oct-16 02:30N 37°47' W 009°49'4 8.2
2017-Oct-16 02:01N 37°51' W 009°50'4 8.0
2017-Oct-16 01:31N 37°55' W 009°51'4 8.2
2017-Oct-16 01:01N 37°59' W 009°53'4 8.4
2017-Oct-16 00:31N 38°03' W 009°54'4 8.4
2017-Oct-16 00:00N 38°07' W 009°55'4 8.2
2017-Oct-15 23:31N 38°11' W 009°56'4 7.9
2017-Oct-15 23:00N 38°15' W 009°57'4 8.0
2017-Oct-15 22:30N 38°19' W 009°58'4 8.0
2017-Oct-15 22:00N 38°23' W 009°60'4 7.8
2017-Oct-15 21:31N 38°26' W 010°01'4 7.7
2017-Oct-15 21:00N 38°30' W 010°02'4 7.5
2017-Oct-15 20:31N 38°34' W 010°03'4 7.6
2017-Oct-15 20:01N 38°38' W 010°04'4 7.6
2017-Oct-15 19:30N 38°41' W 010°05'4 7.6
2017-Oct-15 19:01N 38°45' W 010°05'4 7.4
2017-Oct-15 18:31N 38°49' W 010°05'4 7.2
2017-Oct-15 18:00N 38°52' W 010°04'3 6.8
2017-Oct-15 17:31N 38°56' W 010°03'4 7.4
2017-Oct-15 17:00N 38°59' W 010°02'4 7.8
2017-Oct-15 16:30N 39°03' W 010°01'4 8.3
2017-Oct-15 16:01N 39°07' W 009°59'4 7.9
2017-Oct-15 15:31N 39°11' W 009°58'4 8.4
2017-Oct-15 15:01N 39°15' W 009°56'309 6.6
2017-Oct-13 16:12N 43°45' W 006°38'3 9.5
2017-Oct-13 15:51N 43°45' W 006°33'24 8.8
2017-Oct-13 13:04N 43°43' W 005°60'1 8.9
2017-Oct-13 13:01N 43°43' W 005°59'8 8.3
2017-Oct-13 12:05N 43°41' W 005°49'1 8.8
2017-Oct-13 12:00N 43°41' W 005°48'5 9.0
2017-Oct-13 11:29N 43°38' W 005°43'4 7.3
2017-Oct-13 11:00N 43°35' W 005°40'2 3.1
2017-Oct-13 10:30N 43°34' W 005°42'0 0.0
2017-Oct-13 10:00N 43°34' W 005°42'0 0.0
2017-Oct-13 09:30N 43°34' W 005°42'0 0.0
2017-Oct-13 08:42N 43°34' W 005°42'0 0.0
2017-Oct-13 08:30N 43°34' W 005°42'0 0.0
2017-Oct-13 08:00N 43°34' W 005°42'0 0.0
2017-Oct-13 07:30N 43°34' W 005°42'0 0.0
2017-Oct-13 07:00N 43°34' W 005°42'0 0.0
2017-Oct-13 06:30N 43°34' W 005°42'0 0.0
2017-Oct-13 06:00N 43°34' W 005°42'0 0.0
2017-Oct-13 05:24N 43°34' W 005°42'0 0.0
2017-Oct-13 04:54N 43°34' W 005°42'0 0.0
2017-Oct-13 04:30N 43°34' W 005°42'0 0.0
2017-Oct-13 04:00N 43°34' W 005°42'0 0.0
2017-Oct-13 03:30N 43°34' W 005°42'0 0.0
2017-Oct-13 03:00N 43°34' W 005°42'0 0.0
2017-Oct-13 02:30N 43°34' W 005°42'0 0.0
2017-Oct-13 02:00N 43°34' W 005°42'0 0.0
2017-Oct-13 01:30N 43°34' W 005°42'0 0.0
2017-Oct-13 01:00N 43°34' W 005°42'0 0.0
2017-Oct-13 00:30N 43°34' W 005°42'0 0.0
2017-Oct-13 00:00N 43°34' W 005°42'0 0.0
2017-Oct-12 23:30N 43°34' W 005°42'0 0.0
2017-Oct-12 19:54N 43°34' W 005°42'0 0.0
2017-Oct-12 19:30N 43°34' W 005°42'0 0.0
2017-Oct-12 19:00N 43°34' W 005°42'0 0.0
2017-Oct-12 18:30N 43°34' W 005°42'0 0.0
2017-Oct-12 18:00N 43°34' W 005°42'0 0.0
2017-Oct-12 17:30N 43°34' W 005°42'0 0.0
2017-Oct-12 14:42N 43°34' W 005°42'0 0.0
2017-Oct-12 14:30N 43°34' W 005°42'0 0.0
2017-Oct-12 14:00N 43°34' W 005°42'0 0.0
2017-Oct-12 13:30N 43°34' W 005°42'0 0.0
2017-Oct-12 13:00N 43°34' W 005°42'0 0.0
2017-Oct-12 12:30N 43°34' W 005°42'0 0.0
2017-Oct-12 11:54N 43°34' W 005°42'0 0.0
2017-Oct-12 11:30N 43°34' W 005°42'0 0.0
2017-Oct-12 11:00N 43°34' W 005°42'0 0.0
2017-Oct-12 10:30N 43°34' W 005°42'0 0.0
2017-Oct-12 10:00N 43°34' W 005°42'0 0.0
2017-Oct-12 09:30N 43°34' W 005°42'0 0.0
2017-Oct-12 08:58N 43°34' W 005°42'0 0.0
2017-Oct-12 08:28N 43°34' W 005°42'0 0.0
2017-Oct-12 07:58N 43°34' W 005°42'0 0.0
2017-Oct-12 07:28N 43°34' W 005°42'0 0.0
2017-Oct-12 06:58N 43°34' W 005°42'0 0.0
2017-Oct-12 06:28N 43°34' W 005°42'0 0.0
2017-Oct-12 05:58N 43°34' W 005°42'0 0.0
2017-Oct-12 05:28N 43°34' W 005°42'0 0.0
2017-Oct-12 04:58N 43°34' W 005°42'0 0.0
2017-Oct-12 04:28N 43°34' W 005°42'0 0.0
2017-Oct-12 03:58N 43°34' W 005°42'0 0.0
2017-Oct-12 03:28N 43°34' W 005°42'0 0.0
2017-Oct-12 02:58N 43°34' W 005°42'0 0.0
2017-Oct-12 02:28N 43°34' W 005°42'0 0.0
2017-Oct-12 01:58N 43°34' W 005°42'0 0.0
2017-Oct-12 01:28N 43°34' W 005°42'0 0.0
2017-Oct-12 00:58N 43°34' W 005°42'0 0.0
2017-Oct-12 00:28N 43°34' W 005°42'0 0.0
2017-Oct-11 23:58N 43°34' W 005°42'0 0.0
2017-Oct-11 23:22N 43°34' W 005°42'0 0.0
2017-Oct-11 22:58N 43°34' W 005°42'0 0.0
2017-Oct-11 22:28N 43°34' W 005°42'0 0.0
2017-Oct-11 21:58N 43°34' W 005°42'0 0.0
2017-Oct-11 21:28N 43°34' W 005°42'0 0.0
2017-Oct-11 20:58N 43°34' W 005°42'0 0.0
2017-Oct-11 20:28N 43°34' W 005°42'0 0.0
2017-Oct-11 19:58N 43°34' W 005°42'0 0.0
2017-Oct-11 19:28N 43°34' W 005°42'0 0.0
2017-Oct-11 18:58N 43°34' W 005°42'0 0.0
2017-Oct-11 18:28N 43°34' W 005°42'0 0.0
2017-Oct-11 17:58N 43°34' W 005°42'0 0.0
2017-Oct-11 17:28N 43°34' W 005°42'0 0.0
2017-Oct-11 16:58N 43°34' W 005°42'74 4.3
2017-Oct-10 23:49N 43°49' W 007°22'3 8.9
2017-Oct-10 23:30N 43°49' W 007°26'8 9.2
2017-Oct-10 22:39N 43°50' W 007°37'4 9.2
2017-Oct-10 22:15N 43°50' W 007°42'3 8.9
2017-Oct-10 21:57N 43°50' W 007°45'5 7.9
2017-Oct-10 21:22N 43°50' W 007°52'21 8.1
2017-Oct-10 18:48N 43°44' W 008°19'156 7.0
2017-Oct-09 20:26N 41°11' W 009°01'7 9.0
2017-Oct-09 19:38N 41°04' W 008°58'1 8.9
2017-Oct-09 19:30N 41°03' W 008°58'4 8.5
2017-Oct-09 19:00N 40°59' W 008°56'22 8.3
2017-Oct-09 16:22N 40°39' W 008°45'2 4.5
2017-Oct-09 15:49N 40°39' W 008°42'1 0.4
2017-Oct-09 13:27N 40°38' W 008°41'  
Track history (hours):
 
Tides and Currents Weather Stations Pressure Air Temp Water Temp Dewpoint Dewpoint Depression Visibility Wind Speed Wind Dir Waves Ship Positions

Bulnes

Last reported at 2017-Oct-17 14:06 UTC. Time now 2017-Oct-20 19:45 UTC.
Position N 36°00' W 005°13'.

Length 86 m; draft 5 m.

Type: Cargo ship. MMSI: 255925000.

Date/timePositionNaut miles runAvg speedWind from/ knotsBaromVisibWave heightAir tempDewpointWater temp
2017-Oct-17 14:06N 36°00' W 005°13'1 8.8
2017-Oct-17 13:59N 36°00' W 005°14'4 9.0
2017-Oct-17 13:31N 35°59' W 005°19'5 9.4
2017-Oct-17 13:01N 35°59' W 005°25'5 9.2
2017-Oct-17 12:27N 35°57' W 005°31'163 7.6
2017-Oct-16 14:55N 36°29' W 008°50'7 8.2
2017-Oct-16 14:01N 36°31' W 008°59'83 7.5
2017-Oct-16 02:55N 37°44' W 009°48'4 8.4
2017-Oct-16 02:30N 37°47' W 009°49'4 8.2
2017-Oct-16 02:01N 37°51' W 009°50'4 8.0
2017-Oct-16 01:31N 37°55' W 009°51'4 8.2
2017-Oct-16 01:01N 37°59' W 009°53'4 8.4
2017-Oct-16 00:31N 38°03' W 009°54'4 8.4
2017-Oct-16 00:00N 38°07' W 009°55'4 8.2
2017-Oct-15 23:31N 38°11' W 009°56'4 7.9
2017-Oct-15 23:00N 38°15' W 009°57'4 8.0
2017-Oct-15 22:30N 38°19' W 009°58'4 8.0
2017-Oct-15 22:00N 38°23' W 009°60'4 7.8
2017-Oct-15 21:31N 38°26' W 010°01'4 7.7
2017-Oct-15 21:00N 38°30' W 010°02'4 7.5
2017-Oct-15 20:31N 38°34' W 010°03'4 7.6
2017-Oct-15 20:01N 38°38' W 010°04'4 7.6
2017-Oct-15 19:30N 38°41' W 010°05'4 7.6
2017-Oct-15 19:01N 38°45' W 010°05'4 7.4
2017-Oct-15 18:31N 38°49' W 010°05'4 7.2
2017-Oct-15 18:00N 38°52' W 010°04'3 6.8
2017-Oct-15 17:31N 38°56' W 010°03'4 7.4
2017-Oct-15 17:00N 38°59' W 010°02'4 7.8
2017-Oct-15 16:30N 39°03' W 010°01'4 8.3
2017-Oct-15 16:01N 39°07' W 009°59'4 7.9
2017-Oct-15 15:31N 39°11' W 009°58'4 8.4
2017-Oct-15 15:01N 39°15' W 009°56'309 6.6
2017-Oct-13 16:12N 43°45' W 006°38'3 9.5
2017-Oct-13 15:51N 43°45' W 006°33'24 8.8
2017-Oct-13 13:04N 43°43' W 005°60'1 8.9
2017-Oct-13 13:01N 43°43' W 005°59'8 8.3
2017-Oct-13 12:05N 43°41' W 005°49'1 8.8
2017-Oct-13 12:00N 43°41' W 005°48'5 9.0
2017-Oct-13 11:29N 43°38' W 005°43'4 7.3
2017-Oct-13 11:00N 43°35' W 005°40'2 3.1
2017-Oct-13 10:30N 43°34' W 005°42'0 0.0
2017-Oct-13 10:00N 43°34' W 005°42'0 0.0
2017-Oct-13 09:30N 43°34' W 005°42'0 0.0
2017-Oct-13 08:42N 43°34' W 005°42'0 0.0
2017-Oct-13 08:30N 43°34' W 005°42'0 0.0
2017-Oct-13 08:00N 43°34' W 005°42'0 0.0
2017-Oct-13 07:30N 43°34' W 005°42'0 0.0
2017-Oct-13 07:00N 43°34' W 005°42'0 0.0
2017-Oct-13 06:30N 43°34' W 005°42'0 0.0
2017-Oct-13 06:00N 43°34' W 005°42'0 0.0
2017-Oct-13 05:24N 43°34' W 005°42'0 0.0
2017-Oct-13 04:54N 43°34' W 005°42'0 0.0
2017-Oct-13 04:30N 43°34' W 005°42'0 0.0
2017-Oct-13 04:00N 43°34' W 005°42'0 0.0
2017-Oct-13 03:30N 43°34' W 005°42'0 0.0
2017-Oct-13 03:00N 43°34' W 005°42'0 0.0
2017-Oct-13 02:30N 43°34' W 005°42'0 0.0
2017-Oct-13 02:00N 43°34' W 005°42'0 0.0
2017-Oct-13 01:30N 43°34' W 005°42'0 0.0
2017-Oct-13 01:00N 43°34' W 005°42'0 0.0
2017-Oct-13 00:30N 43°34' W 005°42'0 0.0
2017-Oct-13 00:00N 43°34' W 005°42'0 0.0
2017-Oct-12 23:30N 43°34' W 005°42'0 0.0
2017-Oct-12 19:54N 43°34' W 005°42'0 0.0
2017-Oct-12 19:30N 43°34' W 005°42'0 0.0
2017-Oct-12 19:00N 43°34' W 005°42'0 0.0
2017-Oct-12 18:30N 43°34' W 005°42'0 0.0
2017-Oct-12 18:00N 43°34' W 005°42'0 0.0
2017-Oct-12 17:30N 43°34' W 005°42'0 0.0
2017-Oct-12 14:42N 43°34' W 005°42'0 0.0
2017-Oct-12 14:30N 43°34' W 005°42'0 0.0
2017-Oct-12 14:00N 43°34' W 005°42'0 0.0
2017-Oct-12 13:30N 43°34' W 005°42'0 0.0
2017-Oct-12 13:00N 43°34' W 005°42'0 0.0
2017-Oct-12 12:30N 43°34' W 005°42'0 0.0
2017-Oct-12 11:54N 43°34' W 005°42'0 0.0
2017-Oct-12 11:30N 43°34' W 005°42'0 0.0
2017-Oct-12 11:00N 43°34' W 005°42'0 0.0
2017-Oct-12 10:30N 43°34' W 005°42'0 0.0
2017-Oct-12 10:00N 43°34' W 005°42'0 0.0
2017-Oct-12 09:30N 43°34' W 005°42'0 0.0
2017-Oct-12 08:58N 43°34' W 005°42'0 0.0
2017-Oct-12 08:28N 43°34' W 005°42'0 0.0
2017-Oct-12 07:58N 43°34' W 005°42'0 0.0
2017-Oct-12 07:28N 43°34' W 005°42'0 0.0
2017-Oct-12 06:58N 43°34' W 005°42'0 0.0
2017-Oct-12 06:28N 43°34' W 005°42'0 0.0
2017-Oct-12 05:58N 43°34' W 005°42'0 0.0
2017-Oct-12 05:28N 43°34' W 005°42'0 0.0
2017-Oct-12 04:58N 43°34' W 005°42'0 0.0
2017-Oct-12 04:28N 43°34' W 005°42'0 0.0
2017-Oct-12 03:58N 43°34' W 005°42'0 0.0
2017-Oct-12 03:28N 43°34' W 005°42'0 0.0
2017-Oct-12 02:58N 43°34' W 005°42'0 0.0
2017-Oct-12 02:28N 43°34' W 005°42'0 0.0
2017-Oct-12 01:58N 43°34' W 005°42'0 0.0
2017-Oct-12 01:28N 43°34' W 005°42'0 0.0
2017-Oct-12 00:58N 43°34' W 005°42'0 0.0
2017-Oct-12 00:28N 43°34' W 005°42'0 0.0
2017-Oct-11 23:58N 43°34' W 005°42'0 0.0
2017-Oct-11 23:22N 43°34' W 005°42'0 0.0
2017-Oct-11 22:58N 43°34' W 005°42'0 0.0
2017-Oct-11 22:28N 43°34' W 005°42'0 0.0
2017-Oct-11 21:58N 43°34' W 005°42'0 0.0
2017-Oct-11 21:28N 43°34' W 005°42'0 0.0
2017-Oct-11 20:58N 43°34' W 005°42'0 0.0
2017-Oct-11 20:28N 43°34' W 005°42'0 0.0
2017-Oct-11 19:58N 43°34' W 005°42'0 0.0
2017-Oct-11 19:28N 43°34' W 005°42'0 0.0
2017-Oct-11 18:58N 43°34' W 005°42'0 0.0
2017-Oct-11 18:28N 43°34' W 005°42'0 0.0
2017-Oct-11 17:58N 43°34' W 005°42'0 0.0
2017-Oct-11 17:28N 43°34' W 005°42'0 0.0
2017-Oct-11 16:58N 43°34' W 005°42'74 4.3
2017-Oct-10 23:49N 43°49' W 007°22'3 8.9
2017-Oct-10 23:30N 43°49' W 007°26'8 9.2
2017-Oct-10 22:39N 43°50' W 007°37'4 9.2
2017-Oct-10 22:15N 43°50' W 007°42'3 8.9
2017-Oct-10 21:57N 43°50' W 007°45'5 7.9
2017-Oct-10 21:22N 43°50' W 007°52'21 8.1
2017-Oct-10 18:48N 43°44' W 008°19'156 7.0
2017-Oct-09 20:26N 41°11' W 009°01'7 9.0
2017-Oct-09 19:38N 41°04' W 008°58'1 8.9
2017-Oct-09 19:30N 41°03' W 008°58'4 8.5
2017-Oct-09 19:00N 40°59' W 008°56'22 8.3
2017-Oct-09 16:22N 40°39' W 008°45'2 4.5
2017-Oct-09 15:49N 40°39' W 008°42'1 0.4
2017-Oct-09 13:27N 40°38' W 008°41'  

Dump ship's entire track history